createdAt,value
2022-11-29T00:01:23.773Z,-0.71
2022-11-29T00:04:26.728Z,-0.76
2022-11-29T00:07:29.834Z,-0.75
2022-11-29T00:10:35.614Z,-0.75
2022-11-29T00:13:39.316Z,-0.63
2022-11-29T00:16:42.578Z,-0.71
2022-11-29T00:19:45.652Z,-0.67
2022-11-29T00:22:48.462Z,-0.69
2022-11-29T00:25:51.479Z,-0.65
2022-11-29T00:28:54.522Z,-0.61
2022-11-29T00:31:57.542Z,-0.65
2022-11-29T00:35:02.912Z,-0.70
2022-11-29T00:38:08.097Z,-0.71
2022-11-29T00:41:12.248Z,-0.66
2022-11-29T00:44:19.898Z,-0.66
2022-11-29T00:47:23.457Z,-0.68
2022-11-29T00:50:26.365Z,-0.74
2022-11-29T00:53:29.426Z,-0.72
2022-11-29T00:56:32.586Z,-0.72
2022-11-29T00:59:36.582Z,-0.55
2022-11-29T01:02:39.513Z,-0.57
2022-11-29T01:05:43.132Z,-0.45
2022-11-29T01:08:46.394Z,-0.43
2022-11-29T01:11:50.380Z,-0.40
2022-11-29T01:14:53.345Z,-0.38
2022-11-29T01:17:56.317Z,-0.42
2022-11-29T01:21:14.812Z,-0.40
2022-11-29T01:24:17.614Z,-0.50
2022-11-29T01:27:20.396Z,-0.41
2022-11-29T01:30:23.346Z,-0.44
2022-11-29T01:33:26.243Z,-0.54
2022-11-29T01:36:29.549Z,-0.50
2022-11-29T01:39:32.642Z,-0.56
2022-11-29T01:42:35.452Z,-0.50
2022-11-29T01:45:38.864Z,-0.49
2022-11-29T01:48:41.765Z,-0.50
2022-11-29T01:51:53.679Z,-0.45
2022-11-29T01:55:00.650Z,-0.47
2022-11-29T01:58:04.694Z,-0.50
2022-11-29T02:01:07.609Z,-0.46
2022-11-29T02:04:11.098Z,-0.45
2022-11-29T02:07:14.210Z,-0.46
2022-11-29T02:10:17.632Z,-0.43
2022-11-29T02:13:45.299Z,-0.45
2022-11-29T02:17:10.397Z,-0.43
2022-11-29T02:20:31.319Z,-0.45
2022-11-29T02:24:13.126Z,-0.46
2022-11-29T02:27:55.159Z,-0.47
2022-11-29T02:30:58.038Z,-0.48
2022-11-29T02:34:06.952Z,-0.49
2022-11-29T02:37:21.788Z,-0.50
2022-11-29T02:40:27.690Z,-0.53
2022-11-29T02:43:59.339Z,-0.53
2022-11-29T02:47:25.337Z,-0.52
2022-11-29T02:50:57.357Z,-0.53
2022-11-29T02:54:16.863Z,-0.56
2022-11-29T02:57:38.347Z,-0.54
2022-11-29T03:00:49.512Z,-0.50
2022-11-29T03:04:10.532Z,-0.50
2022-11-29T03:07:35.309Z,-0.58
2022-11-29T03:11:03.188Z,-0.59
2022-11-29T03:14:24.486Z,-0.56
2022-11-29T03:18:01.371Z,-0.59
2022-11-29T03:21:18.277Z,-0.56
2022-11-29T03:24:51.395Z,-0.58
2022-11-29T03:28:29.472Z,-0.59
2022-11-29T03:31:57.006Z,-0.60
2022-11-29T03:35:18.503Z,-0.62
2022-11-29T03:38:35.386Z,-0.56
2022-11-29T03:41:40.550Z,-0.56
2022-11-29T03:44:53.761Z,-0.57
2022-11-29T03:48:12.646Z,-0.56
2022-11-29T03:51:22.131Z,-0.60
2022-11-29T03:54:32.858Z,-0.63
2022-11-29T03:57:38.727Z,-0.67
2022-11-29T04:01:16.259Z,-0.71
2022-11-29T04:04:34.319Z,-0.77
2022-11-29T04:08:02.201Z,-0.77
2022-11-29T04:11:23.589Z,-0.82
2022-11-29T04:14:58.183Z,-0.84
2022-11-29T04:18:16.156Z,-0.92
2022-11-29T04:21:49.947Z,-1.01
2022-11-29T04:25:30.042Z,-0.99
2022-11-29T04:28:51.717Z,-0.99
2022-11-29T04:32:16.718Z,-1.13
2022-11-29T04:35:49.594Z,-1.09
2022-11-29T04:39:01.535Z,-1.12
2022-11-29T04:42:49.986Z,-1.13
2022-11-29T04:46:31.816Z,-1.15
2022-11-29T04:49:54.198Z,-1.12
2022-11-29T04:53:02.759Z,-1.11
2022-11-29T04:56:36.738Z,-1.14
2022-11-29T05:00:02.724Z,-1.07
2022-11-29T05:03:20.484Z,-1.09
2022-11-29T05:07:04.521Z,-1.08
2022-11-29T05:10:22.585Z,-1.04
2022-11-29T05:13:29.145Z,-1.04
2022-11-29T05:16:45.270Z,-0.93
2022-11-29T05:20:16.073Z,-0.89
2022-11-29T05:23:57.492Z,-0.87
2022-11-29T05:27:35.967Z,-0.87
2022-11-29T05:31:17.224Z,-0.88
2022-11-29T05:34:38.372Z,-0.87
2022-11-29T05:38:02.879Z,-0.86
2022-11-29T05:41:37.485Z,-0.84
2022-11-29T05:44:46.840Z,-0.82
2022-11-29T05:47:57.810Z,-0.86
2022-11-29T05:51:10.975Z,-0.89
2022-11-29T05:54:13.807Z,-0.95
2022-11-29T05:57:53.818Z,-0.99
2022-11-29T06:01:19.006Z,-1.04
2022-11-29T06:04:41.658Z,-1.11
2022-11-29T06:07:54.643Z,-1.17
2022-11-29T06:11:20.835Z,-1.21
2022-11-29T06:14:48.008Z,-1.24
2022-11-29T06:18:23.104Z,-1.21
2022-11-29T06:21:29.037Z,-1.23
2022-11-29T06:24:50.999Z,-1.19
2022-11-29T06:28:09.015Z,-1.16
2022-11-29T06:31:11.970Z,-1.13
2022-11-29T06:34:22.402Z,-1.22
2022-11-29T06:37:40.503Z,-1.08
2022-11-29T06:40:43.455Z,-1.15
2022-11-29T06:43:46.554Z,-1.06
2022-11-29T06:47:05.664Z,-1.07
2022-11-29T06:50:26.686Z,-1.18
2022-11-29T06:53:51.292Z,-1.15
2022-11-29T06:57:17.385Z,-1.03
2022-11-29T07:00:27.085Z,-0.99
2022-11-29T07:03:41.796Z,-0.85
2022-11-29T07:06:44.902Z,-0.65
2022-11-29T07:09:53.733Z,-0.50
2022-11-29T07:12:57.266Z,-0.26
2022-11-29T07:16:13.971Z,-0.33
2022-11-29T07:19:24.000Z,0.00
2022-11-29T07:22:59.925Z,-0.03
2022-11-29T07:26:22.104Z,0.28
2022-11-29T07:29:55.661Z,0.60
2022-11-29T07:33:16.824Z,0.62
2022-11-29T07:36:23.977Z,0.40
2022-11-29T07:39:53.192Z,0.21
2022-11-29T07:43:19.604Z,0.20
2022-11-29T07:46:37.327Z,0.39
2022-11-29T07:49:40.197Z,0.43
2022-11-29T07:52:47.498Z,0.35
2022-11-29T07:55:55.473Z,0.30
2022-11-29T07:58:59.470Z,0.54
2022-11-29T08:02:08.784Z,0.51
2022-11-29T08:05:15.863Z,0.66
2022-11-29T08:08:22.352Z,0.83
2022-11-29T08:11:26.414Z,0.62
2022-11-29T08:14:33.194Z,0.64
2022-11-29T08:17:38.256Z,0.57
2022-11-29T08:20:42.248Z,0.52
2022-11-29T08:23:46.305Z,0.43
2022-11-29T08:26:49.606Z,0.47
2022-11-29T08:29:53.948Z,0.45
2022-11-29T08:32:58.646Z,0.69
2022-11-29T08:36:11.608Z,0.84
2022-11-29T08:39:14.718Z,0.86
2022-11-29T08:42:17.784Z,0.95
2022-11-29T08:45:20.568Z,1.02
2022-11-29T08:48:23.395Z,0.78
2022-11-29T08:51:26.229Z,0.88
2022-11-29T08:54:29.033Z,0.81
2022-11-29T08:57:41.902Z,0.96
2022-11-29T09:00:47.391Z,0.86
2022-11-29T09:04:05.135Z,1.00
2022-11-29T09:07:08.152Z,1.05
2022-11-29T09:10:12.312Z,1.01
2022-11-29T09:13:15.314Z,1.29
2022-11-29T09:16:20.780Z,1.47
2022-11-29T09:19:24.092Z,1.57
2022-11-29T09:22:27.551Z,1.77
2022-11-29T09:25:30.675Z,1.72
2022-11-29T09:28:34.616Z,1.92
2022-11-29T09:31:38.641Z,1.99
2022-11-29T09:34:42.455Z,2.19
2022-11-29T09:37:45.697Z,2.19
2022-11-29T09:40:57.255Z,2.48
2022-11-29T09:44:17.300Z,2.49
2022-11-29T09:47:33.249Z,2.66
2022-11-29T09:50:43.167Z,2.78
2022-11-29T09:54:40.747Z,2.83
2022-11-29T09:57:44.545Z,2.88
2022-11-29T10:00:54.629Z,3.31
2022-11-29T10:04:19.567Z,2.90
2022-11-29T10:07:27.457Z,3.54
2022-11-29T10:10:41.672Z,4.37
2022-11-29T10:13:53.874Z,5.15
2022-11-29T10:17:34.364Z,5.08
2022-11-29T10:20:48.819Z,3.88
2022-11-29T10:23:56.574Z,4.66
2022-11-29T10:26:59.834Z,6.41
2022-11-29T10:30:03.195Z,7.74
2022-11-29T10:33:18.181Z,7.28
2022-11-29T10:36:31.601Z,7.70
2022-11-29T10:39:57.522Z,8.36
2022-11-29T10:43:01.607Z,7.65
2022-11-29T10:46:06.120Z,7.58
2022-11-29T10:49:20.756Z,6.96
2022-11-29T10:52:24.595Z,5.58
2022-11-29T10:55:31.571Z,5.00
2022-11-29T10:58:36.194Z,5.64
2022-11-29T11:01:43.990Z,5.24
2022-11-29T11:04:48.412Z,4.55
2022-11-29T11:08:18.266Z,4.75
2022-11-29T11:11:33.873Z,4.29
2022-11-29T11:15:00.876Z,4.61
2022-11-29T11:18:07.008Z,4.86
2022-11-29T11:21:15.686Z,5.18
2022-11-29T11:24:25.232Z,6.61
2022-11-29T11:27:35.985Z,7.21
2022-11-29T11:30:39.015Z,9.06
2022-11-29T11:33:46.132Z,8.32
2022-11-29T11:36:49.276Z,7.50
2022-11-29T11:39:58.939Z,7.52
2022-11-29T11:43:36.859Z,7.64
2022-11-29T11:46:56.450Z,7.89
2022-11-29T11:50:02.785Z,7.10
2022-11-29T11:53:17.651Z,6.65
2022-11-29T11:56:22.269Z,6.59
2022-11-29T11:59:28.086Z,5.47
2022-11-29T12:02:41.491Z,5.37
2022-11-29T12:05:48.843Z,4.92
2022-11-29T12:08:58.012Z,4.40
2022-11-29T12:12:07.283Z,4.49
2022-11-29T12:15:35.795Z,4.32
2022-11-29T12:18:51.705Z,4.18
2022-11-29T12:22:02.938Z,4.06
2022-11-29T12:25:14.179Z,4.09
2022-11-29T12:28:20.761Z,4.13
2022-11-29T12:31:43.204Z,4.28
2022-11-29T12:35:08.396Z,4.24
2022-11-29T12:38:32.718Z,4.28
2022-11-29T12:42:17.055Z,4.19
2022-11-29T12:45:29.234Z,4.19
2022-11-29T12:48:56.919Z,4.12
2022-11-29T12:52:09.294Z,4.33
2022-11-29T12:55:49.720Z,4.25
2022-11-29T12:59:15.294Z,4.44
2022-11-29T13:02:41.623Z,4.28
2022-11-29T13:06:22.039Z,4.42
2022-11-29T13:09:43.896Z,4.48
2022-11-29T13:12:55.858Z,4.57
2022-11-29T13:16:01.622Z,4.51
2022-11-29T13:19:18.437Z,4.55
2022-11-29T13:23:14.960Z,4.21
2022-11-29T13:26:18.933Z,4.20
2022-11-29T13:29:22.363Z,4.27
2022-11-29T13:32:37.483Z,4.17
2022-11-29T13:35:51.506Z,4.11
2022-11-29T13:39:06.582Z,4.08
2022-11-29T13:42:27.350Z,4.00
2022-11-29T13:46:09.258Z,3.86
2022-11-29T13:49:41.978Z,3.87
2022-11-29T13:52:47.678Z,3.78
2022-11-29T13:56:01.592Z,3.76
2022-11-29T13:59:14.355Z,3.78
2022-11-29T14:02:30.563Z,3.68
2022-11-29T14:05:38.312Z,3.56
2022-11-29T14:09:17.087Z,3.47
2022-11-29T14:12:31.586Z,3.43
2022-11-29T14:15:34.663Z,3.37
2022-11-29T14:18:37.511Z,3.31
2022-11-29T14:21:58.934Z,3.29
2022-11-29T14:25:49.183Z,3.31
2022-11-29T14:28:44.168Z,3.33
2022-11-29T14:31:49.781Z,3.30
2022-11-29T14:34:57.735Z,3.24
2022-11-29T14:38:15.586Z,3.07
2022-11-29T14:41:27.415Z,3.03
2022-11-29T14:44:32.458Z,3.03
2022-11-29T14:47:39.052Z,2.97
2022-11-29T14:50:42.306Z,3.00
2022-11-29T14:53:47.936Z,3.00
2022-11-29T14:56:50.934Z,2.88
2022-11-29T14:59:54.852Z,2.85
2022-11-29T15:03:16.145Z,2.76
2022-11-29T15:06:30.393Z,2.66
2022-11-29T15:09:35.004Z,2.60
2022-11-29T15:12:38.635Z,2.60
2022-11-29T15:16:13.167Z,2.56
2022-11-29T15:19:49.499Z,2.50
2022-11-29T15:22:55.455Z,2.56
2022-11-29T15:26:01.613Z,2.49
2022-11-29T15:29:19.812Z,2.47
2022-11-29T15:32:25.875Z,2.44
2022-11-29T15:35:29.245Z,2.42
2022-11-29T15:38:42.949Z,2.34
2022-11-29T15:41:45.766Z,2.26
2022-11-29T15:44:49.323Z,2.22
2022-11-29T15:47:52.616Z,2.16
2022-11-29T15:51:01.516Z,2.19
2022-11-29T15:54:13.843Z,2.23
2022-11-29T15:57:22.950Z,2.22
2022-11-29T16:00:28.269Z,2.10
2022-11-29T16:03:34.940Z,2.21
2022-11-29T16:06:42.859Z,2.17
2022-11-29T16:09:50.553Z,2.12
2022-11-29T16:13:04.090Z,2.05
2022-11-29T16:16:20.621Z,1.97
2022-11-29T16:19:37.095Z,1.95
2022-11-29T16:22:40.035Z,1.94
2022-11-29T16:26:41.582Z,1.95
2022-11-29T16:29:46.232Z,1.88
2022-11-29T16:32:54.826Z,1.88
2022-11-29T16:36:29.338Z,1.90
2022-11-29T16:39:35.200Z,1.87
2022-11-29T16:42:38.722Z,1.79
2022-11-29T16:45:42.601Z,1.79
2022-11-29T16:48:45.941Z,1.81
2022-11-29T16:51:55.392Z,1.78
2022-11-29T16:54:58.410Z,1.78
2022-11-29T16:58:04.351Z,1.79
2022-11-29T17:01:17.867Z,1.73
2022-11-29T17:04:25.377Z,1.73
2022-11-29T17:07:35.281Z,1.69
2022-11-29T17:10:38.486Z,1.71
2022-11-29T17:13:41.291Z,1.69
2022-11-29T17:16:44.835Z,1.73
2022-11-29T17:19:47.773Z,1.73
2022-11-29T17:22:50.590Z,1.77
2022-11-29T17:25:57.739Z,1.73
2022-11-29T17:29:01.205Z,1.71
2022-11-29T17:32:04.602Z,1.69
2022-11-29T17:35:08.300Z,1.71
2022-11-29T17:38:11.346Z,1.70
2022-11-29T17:41:22.547Z,1.70
2022-11-29T17:44:25.510Z,1.66
2022-11-29T17:47:28.299Z,1.65
2022-11-29T17:50:31.247Z,1.62
2022-11-29T17:53:35.528Z,1.65
2022-11-29T17:56:38.436Z,1.60
2022-11-29T17:59:41.303Z,1.63
2022-11-29T18:02:44.277Z,1.60
2022-11-29T18:05:47.059Z,1.59
2022-11-29T18:08:52.136Z,1.64
2022-11-29T18:11:55.142Z,1.61
2022-11-29T18:14:58.010Z,1.61
2022-11-29T18:18:00.956Z,1.57
2022-11-29T18:21:05.908Z,1.57
2022-11-29T18:24:09.883Z,1.53
2022-11-29T18:27:12.844Z,1.51
2022-11-29T18:30:16.535Z,1.54
2022-11-29T18:33:20.278Z,1.54
2022-11-29T18:36:26.274Z,1.55
2022-11-29T18:39:30.830Z,1.56
2022-11-29T18:42:33.938Z,1.59
2022-11-29T18:45:38.300Z,1.58
2022-11-29T18:48:44.614Z,1.61
2022-11-29T18:51:49.233Z,1.69
2022-11-29T18:54:52.308Z,1.66
2022-11-29T18:57:55.407Z,1.65
2022-11-29T19:01:29.292Z,1.70
2022-11-29T19:04:32.733Z,1.68
2022-11-29T19:07:35.544Z,1.69
2022-11-29T19:10:38.981Z,1.74
2022-11-29T19:13:42.371Z,1.80
2022-11-29T19:16:47.871Z,1.74
2022-11-29T19:19:50.893Z,1.73
2022-11-29T19:23:00.200Z,1.79
2022-11-29T19:26:09.084Z,1.82
2022-11-29T19:29:15.766Z,1.81
2022-11-29T19:32:18.880Z,1.81
2022-11-29T19:35:21.976Z,1.87
2022-11-29T19:38:25.171Z,1.82
2022-11-29T19:41:34.148Z,1.92
2022-11-29T19:45:08.749Z,1.94
2022-11-29T19:48:00.330Z,1.97
2022-11-29T19:51:04.554Z,2.01
2022-11-29T19:54:09.388Z,2.02
2022-11-29T19:57:12.139Z,2.12
2022-11-29T20:00:16.003Z,2.15
2022-11-29T20:03:19.011Z,2.22
2022-11-29T20:06:22.444Z,2.22
2022-11-29T20:09:28.774Z,2.14
2022-11-29T20:12:32.967Z,2.09
2022-11-29T20:15:35.730Z,2.08
2022-11-29T20:18:48.760Z,2.17
2022-11-29T20:21:54.931Z,2.15
2022-11-29T20:24:58.093Z,2.20
2022-11-29T20:28:04.220Z,2.07
2022-11-29T20:31:09.153Z,2.07
2022-11-29T20:34:14.330Z,2.07
2022-11-29T20:37:44.876Z,2.04
2022-11-29T20:41:06.286Z,2.04
2022-11-29T20:44:16.304Z,2.05
2022-11-29T20:47:22.581Z,2.11
2022-11-29T20:50:28.005Z,2.03
2022-11-29T20:53:31.736Z,2.00
2022-11-29T20:56:34.692Z,2.08
2022-11-29T20:59:37.811Z,2.09
2022-11-29T21:02:40.512Z,2.03
2022-11-29T21:05:43.939Z,2.08
2022-11-29T21:08:46.871Z,2.10
2022-11-29T21:11:50.442Z,2.11
2022-11-29T21:14:53.829Z,2.26
2022-11-29T21:17:57.034Z,2.22
2022-11-29T21:21:07.478Z,2.26
2022-11-29T21:24:28.906Z,2.30
2022-11-29T21:27:33.739Z,2.34
2022-11-29T21:30:37.191Z,2.34
2022-11-29T21:33:40.443Z,2.38
2022-11-29T21:36:44.398Z,2.41
2022-11-29T21:39:49.323Z,2.38
2022-11-29T21:42:52.197Z,2.47
2022-11-29T21:45:55.075Z,2.44
2022-11-29T21:48:57.862Z,2.47
2022-11-29T21:52:01.343Z,2.45
2022-11-29T21:55:04.550Z,2.51
2022-11-29T21:58:07.316Z,2.55
2022-11-29T22:01:14.108Z,2.54
2022-11-29T22:04:17.100Z,2.57
2022-11-29T22:07:20.028Z,2.59
2022-11-29T22:10:22.997Z,2.64
2022-11-29T22:13:26.050Z,2.62
2022-11-29T22:16:30.074Z,2.53
2022-11-29T22:19:36.301Z,2.57
2022-11-29T22:22:39.007Z,2.70
2022-11-29T22:25:41.823Z,2.67
2022-11-29T22:28:44.619Z,2.64
2022-11-29T22:31:50.416Z,2.62
2022-11-29T22:34:53.326Z,2.67
2022-11-29T22:37:56.208Z,2.59
2022-11-29T22:41:04.138Z,2.64
2022-11-29T22:44:07.864Z,2.58
2022-11-29T22:47:12.872Z,2.62
2022-11-29T22:50:15.611Z,2.54
2022-11-29T22:53:18.345Z,2.58
2022-11-29T22:56:23.080Z,2.60
